createdAt,value
2018-05-17T00:00:37.708Z,12.19
2018-05-17T00:03:05.267Z,12.18
2018-05-17T00:05:32.782Z,12.21
2018-05-17T00:08:00.337Z,12.21
2018-05-17T00:10:27.878Z,12.26
2018-05-17T00:12:55.383Z,12.29
2018-05-17T00:15:22.942Z,12.31
2018-05-17T00:17:50.494Z,12.33
2018-05-17T00:20:18.008Z,12.35
2018-05-17T00:22:45.553Z,12.39
2018-05-17T00:25:13.059Z,12.38
2018-05-17T00:27:40.610Z,12.37
2018-05-17T00:30:08.148Z,12.34
2018-05-17T00:32:35.735Z,12.29
2018-05-17T00:35:03.251Z,12.24
2018-05-17T00:37:30.790Z,12.23
2018-05-17T00:39:58.312Z,11.02
2018-05-17T00:42:25.852Z,12.26
2018-05-17T00:44:53.392Z,12.26
2018-05-17T00:47:20.945Z,12.24
2018-05-17T00:49:48.461Z,12.22
2018-05-17T00:52:15.998Z,12.22
2018-05-17T00:54:43.555Z,12.22
2018-05-17T00:57:11.093Z,12.21
2018-05-17T00:59:38.632Z,12.23
2018-05-17T01:02:06.172Z,12.22
2018-05-17T01:04:33.702Z,12.22
2018-05-17T01:07:01.244Z,12.18
2018-05-17T01:09:28.766Z,12.17
2018-05-17T01:11:56.342Z,12.17
2018-05-17T01:14:23.885Z,12.19
2018-05-17T01:16:51.390Z,12.18
2018-05-17T01:19:18.916Z,12.13
2018-05-17T01:21:46.453Z,12.12
2018-05-17T01:24:13.992Z,12.10
2018-05-17T01:26:41.523Z,12.11
2018-05-17T01:29:09.045Z,12.08
2018-05-17T01:31:36.606Z,12.08
2018-05-17T01:34:04.115Z,12.03
2018-05-17T01:36:31.633Z,12.00
2018-05-17T01:38:59.170Z,12.00
2018-05-17T01:41:27.306Z,11.99
2018-05-17T01:43:54.839Z,11.99
2018-05-17T01:46:22.354Z,11.95
2018-05-17T01:48:49.893Z,11.94
2018-05-17T01:51:17.443Z,11.90
2018-05-17T01:53:44.997Z,11.92
2018-05-17T01:56:12.649Z,11.94
2018-05-17T01:58:40.175Z,11.93
2018-05-17T02:01:07.724Z,11.91
2018-05-17T02:03:35.261Z,11.95
2018-05-17T02:06:02.762Z,11.93
2018-05-17T02:08:30.304Z,11.90
2018-05-17T02:10:57.831Z,11.87
2018-05-17T02:13:25.350Z,11.85
2018-05-17T02:15:52.887Z,11.86
2018-05-17T02:18:20.422Z,11.84
2018-05-17T02:20:47.974Z,11.85
2018-05-17T02:23:15.465Z,11.61
2018-05-17T02:25:42.991Z,11.84
2018-05-17T02:28:10.543Z,11.84
2018-05-17T02:30:38.053Z,11.83
2018-05-17T02:33:05.578Z,11.84
2018-05-17T02:35:33.098Z,11.84
2018-05-17T02:38:00.606Z,11.82
2018-05-17T02:40:28.198Z,11.82
2018-05-17T02:42:55.695Z,11.84
2018-05-17T02:45:23.226Z,11.88
2018-05-17T02:47:50.737Z,11.84
2018-05-17T02:50:18.241Z,11.88
2018-05-17T02:52:45.832Z,11.88
2018-05-17T02:55:13.380Z,11.90
2018-05-17T02:57:40.930Z,11.89
2018-05-17T03:00:08.442Z,11.88
2018-05-17T03:02:35.969Z,11.88
2018-05-17T03:05:03.507Z,11.86
2018-05-17T03:07:31.119Z,11.86
2018-05-17T03:09:58.650Z,11.83
2018-05-17T03:12:26.167Z,11.81
2018-05-17T03:14:53.680Z,11.82
2018-05-17T03:17:21.216Z,11.81
2018-05-17T03:19:48.718Z,11.82
2018-05-17T03:22:16.254Z,11.79
2018-05-17T03:24:43.768Z,11.76
2018-05-17T03:27:11.313Z,11.71
2018-05-17T03:29:38.825Z,11.75
2018-05-17T03:32:06.321Z,11.75
2018-05-17T03:34:33.907Z,11.76
2018-05-17T03:37:01.416Z,11.73
2018-05-17T03:39:28.939Z,11.72
2018-05-17T03:41:56.527Z,11.73
2018-05-17T03:44:24.067Z,11.74
2018-05-17T03:46:51.611Z,11.74
2018-05-17T03:49:19.151Z,11.75
2018-05-17T03:51:46.649Z,11.77
2018-05-17T03:54:14.186Z,11.78
2018-05-17T03:56:41.701Z,11.80
2018-05-17T03:59:09.245Z,11.83
2018-05-17T04:04:50.359Z,11.87
2018-05-17T04:07:17.918Z,11.89
2018-05-17T04:09:45.438Z,11.88
2018-05-17T04:12:13.014Z,11.81
2018-05-17T04:14:40.527Z,11.85
2018-05-17T04:17:08.088Z,11.87
2018-05-17T04:19:35.606Z,11.87
2018-05-17T04:22:03.121Z,11.88
2018-05-17T04:24:30.715Z,11.87
2018-05-17T04:26:58.247Z,11.83
2018-05-17T04:29:25.798Z,11.85
2018-05-17T04:31:53.318Z,11.88
2018-05-17T04:34:20.833Z,11.93
2018-05-17T04:36:48.361Z,12.01
2018-05-17T04:39:15.877Z,12.11
2018-05-17T04:41:43.405Z,12.20
2018-05-17T04:44:10.995Z,12.33
2018-05-17T04:46:38.534Z,12.37
2018-05-17T04:49:06.079Z,12.42
2018-05-17T04:51:33.667Z,12.46
2018-05-17T04:54:01.161Z,12.49
2018-05-17T04:56:28.690Z,12.57
2018-05-17T04:58:56.203Z,12.54
2018-05-17T05:01:23.735Z,12.67
2018-05-17T05:03:51.263Z,12.67
2018-05-17T05:06:18.806Z,12.63
2018-05-17T05:08:46.317Z,12.62
2018-05-17T05:11:13.838Z,12.65
2018-05-17T05:13:41.367Z,12.58
2018-05-17T05:16:08.889Z,12.58
2018-05-17T05:18:36.434Z,12.59
2018-05-17T05:21:03.934Z,12.67
2018-05-17T05:23:31.450Z,12.56
2018-05-17T05:25:59.011Z,12.59
2018-05-17T05:28:26.508Z,12.62
2018-05-17T05:30:54.080Z,12.59
2018-05-17T05:33:21.637Z,12.57
2018-05-17T05:35:49.157Z,12.49
2018-05-17T05:38:16.743Z,12.55
2018-05-17T05:40:44.258Z,12.64
2018-05-17T05:43:11.771Z,12.71
2018-05-17T05:45:39.386Z,12.74
2018-05-17T05:48:06.931Z,12.71
2018-05-17T05:50:34.455Z,12.70
2018-05-17T05:53:02.002Z,12.61
2018-05-17T05:55:29.522Z,12.64
2018-05-17T05:57:57.019Z,12.69
2018-05-17T06:00:24.555Z,12.71
2018-05-17T06:02:52.087Z,12.77
2018-05-17T06:05:19.678Z,12.84
2018-05-17T06:07:47.235Z,12.93
2018-05-17T06:10:14.819Z,13.07
2018-05-17T06:12:42.468Z,13.18
2018-05-17T06:15:10.001Z,13.25
2018-05-17T06:17:37.562Z,13.28
2018-05-17T06:20:05.116Z,13.20
2018-05-17T06:22:32.633Z,13.26
2018-05-17T06:25:00.167Z,13.24
2018-05-17T06:27:27.670Z,13.29
2018-05-17T06:29:55.200Z,13.41
2018-05-17T06:32:22.716Z,13.47
2018-05-17T06:34:50.250Z,13.54
2018-05-17T06:37:17.813Z,13.63
2018-05-17T06:39:45.331Z,13.74
2018-05-17T06:42:12.883Z,13.71
2018-05-17T06:44:40.457Z,13.81
2018-05-17T06:47:07.955Z,13.80
2018-05-17T06:49:35.546Z,13.87
2018-05-17T06:52:03.086Z,13.91
2018-05-17T06:54:30.681Z,13.88
2018-05-17T06:56:58.312Z,13.89
2018-05-17T06:59:25.835Z,13.87
2018-05-17T07:01:53.451Z,13.89
2018-05-17T07:04:20.965Z,13.90
2018-05-17T07:06:48.519Z,14.00
2018-05-17T07:09:16.033Z,14.07
2018-05-17T07:11:43.548Z,13.99
2018-05-17T07:14:11.069Z,13.96
2018-05-17T07:16:38.940Z,13.92
2018-05-17T07:19:06.506Z,14.10
2018-05-17T07:21:34.265Z,14.31
2018-05-17T07:24:01.852Z,14.53
2018-05-17T07:26:29.391Z,14.52
2018-05-17T07:28:56.921Z,14.51
2018-05-17T07:31:24.560Z,14.66
2018-05-17T07:33:52.110Z,14.81
2018-05-17T07:36:19.699Z,15.01
2018-05-17T07:38:47.553Z,14.91
2018-05-17T07:41:15.173Z,14.80
2018-05-17T07:43:42.773Z,14.88
2018-05-17T07:46:10.350Z,15.06
2018-05-17T07:48:37.885Z,15.14
2018-05-17T07:51:05.412Z,15.22
2018-05-17T07:53:32.908Z,15.20
2018-05-17T07:56:00.425Z,15.25
2018-05-17T07:58:27.937Z,15.33
2018-05-17T08:00:55.438Z,15.69
2018-05-17T08:03:22.970Z,15.78
2018-05-17T08:05:50.477Z,16.08
2018-05-17T08:08:17.988Z,16.07
2018-05-17T08:10:45.490Z,16.18
2018-05-17T08:13:12.985Z,15.89
2018-05-17T08:15:40.493Z,15.85
2018-05-17T08:18:07.977Z,15.93
2018-05-17T08:20:35.501Z,16.07
2018-05-17T08:23:02.998Z,16.17
2018-05-17T08:25:30.492Z,16.11
2018-05-17T08:27:58.030Z,16.75
2018-05-17T08:30:26.422Z,16.93
2018-05-17T08:32:53.942Z,16.58
2018-05-17T08:35:21.437Z,16.22
2018-05-17T08:37:48.936Z,16.66
2018-05-17T08:40:16.507Z,16.94
2018-05-17T08:42:44.074Z,16.73
2018-05-17T08:45:11.540Z,16.80
2018-05-17T08:47:39.034Z,16.66
2018-05-17T08:50:06.526Z,16.68
2018-05-17T08:52:34.038Z,16.69
2018-05-17T08:55:01.539Z,16.96
2018-05-17T08:57:29.070Z,16.94
2018-05-17T08:59:56.575Z,16.97
2018-05-17T09:02:24.240Z,16.97
2018-05-17T09:04:51.758Z,16.80
2018-05-17T09:07:19.263Z,17.01
2018-05-17T09:09:46.780Z,17.47
2018-05-17T09:12:14.795Z,18.11
2018-05-17T09:14:42.308Z,19.04
2018-05-17T09:17:09.817Z,19.42
2018-05-17T09:19:37.308Z,19.77
2018-05-17T09:22:04.830Z,19.71
2018-05-17T09:24:32.326Z,19.01
2018-05-17T09:26:59.835Z,19.29
2018-05-17T09:29:27.359Z,19.55
2018-05-17T09:31:54.867Z,19.45
2018-05-17T09:34:22.385Z,19.24
2018-05-17T09:36:49.882Z,21.27
2018-05-17T09:39:17.404Z,21.79
2018-05-17T09:41:44.930Z,22.94
2018-05-17T09:44:12.423Z,23.86
2018-05-17T09:46:39.955Z,22.54
2018-05-17T09:49:07.453Z,21.84
2018-05-17T09:51:34.945Z,21.08
2018-05-17T09:54:02.462Z,20.00
2018-05-17T09:56:29.955Z,19.68
2018-05-17T09:58:57.490Z,19.35
2018-05-17T10:01:24.993Z,19.26
2018-05-17T10:03:52.482Z,18.90
2018-05-17T10:06:20.048Z,18.99
2018-05-17T10:08:47.534Z,19.12
2018-05-17T10:11:15.073Z,18.61
2018-05-17T10:13:42.572Z,17.96
2018-05-17T10:16:10.075Z,17.70
2018-05-17T10:18:37.603Z,17.63
2018-05-17T10:21:05.088Z,17.67
2018-05-17T10:23:32.611Z,17.89
2018-05-17T10:26:00.106Z,18.07
2018-05-17T10:28:27.597Z,18.21
2018-05-17T10:30:55.111Z,18.34
2018-05-17T10:33:22.619Z,18.39
2018-05-17T10:35:50.134Z,18.05
2018-05-17T10:38:17.627Z,17.79
2018-05-17T10:40:45.130Z,17.48
2018-05-17T10:43:12.652Z,17.59
2018-05-17T10:45:40.145Z,17.56
2018-05-17T10:48:07.667Z,17.32
2018-05-17T10:50:35.170Z,17.20
2018-05-17T10:53:02.685Z,16.96
2018-05-17T10:55:31.122Z,16.50
2018-05-17T10:57:58.623Z,16.16
2018-05-17T11:00:26.141Z,16.05
2018-05-17T11:02:54.558Z,16.10
2018-05-17T11:05:22.051Z,16.11
2018-05-17T11:07:49.575Z,15.97
2018-05-17T11:10:17.074Z,15.92
2018-05-17T11:12:45.553Z,15.89
2018-05-17T11:15:13.094Z,15.95
2018-05-17T11:17:40.553Z,15.89
2018-05-17T11:20:08.079Z,15.78
2018-05-17T11:22:35.577Z,15.71
2018-05-17T11:25:03.098Z,15.77
2018-05-17T11:27:30.595Z,15.79
2018-05-17T11:29:58.086Z,15.97
2018-05-17T11:32:25.601Z,16.08
2018-05-17T11:34:53.109Z,16.32
2018-05-17T11:37:20.626Z,16.51
2018-05-17T11:39:48.117Z,16.76
2018-05-17T11:42:15.641Z,17.08
2018-05-17T11:44:43.162Z,17.39
2018-05-17T11:47:10.658Z,17.76
2018-05-17T11:49:38.181Z,18.31
2018-05-17T11:52:05.677Z,18.72
2018-05-17T11:54:33.160Z,18.98
2018-05-17T11:57:00.678Z,18.95
2018-05-17T11:59:28.172Z,18.64
2018-05-17T12:01:55.694Z,18.48
2018-05-17T12:04:23.191Z,18.76
2018-05-17T12:06:50.697Z,19.00
2018-05-17T12:09:18.208Z,19.59
2018-05-17T12:11:45.781Z,19.75
2018-05-17T12:14:13.339Z,20.13
2018-05-17T12:16:41.734Z,20.21
2018-05-17T12:19:09.398Z,20.60
2018-05-17T12:21:36.909Z,20.91
2018-05-17T12:24:04.410Z,21.01
2018-05-17T12:26:31.949Z,21.06
2018-05-17T12:28:59.446Z,20.98
2018-05-17T12:31:26.944Z,21.10
2018-05-17T12:33:54.469Z,20.97
2018-05-17T12:36:21.969Z,20.96
2018-05-17T12:38:49.513Z,20.86
2018-05-17T12:41:17.042Z,20.97
2018-05-17T12:43:45.555Z,21.14
2018-05-17T12:46:13.071Z,21.36
2018-05-17T12:48:40.587Z,21.69
2018-05-17T12:51:08.145Z,21.75
2018-05-17T12:53:35.671Z,21.97
2018-05-17T12:56:03.171Z,21.90
2018-05-17T12:58:30.730Z,21.86
2018-05-17T13:03:32.330Z,22.18
2018-05-17T13:05:59.899Z,22.20
2018-05-17T13:08:27.401Z,21.90
2018-05-17T13:10:54.926Z,21.67
2018-05-17T13:13:22.423Z,21.27
2018-05-17T13:15:50.919Z,21.06
2018-05-17T13:18:18.418Z,21.51
2018-05-17T13:20:45.913Z,21.77
2018-05-17T13:23:13.427Z,21.37
2018-05-17T13:25:40.933Z,21.55
2018-05-17T13:28:08.454Z,21.67
2018-05-17T13:30:35.947Z,21.68
2018-05-17T13:33:03.446Z,21.74
2018-05-17T13:35:30.965Z,21.87
2018-05-17T13:37:58.458Z,21.90
2018-05-17T13:40:25.986Z,22.02
2018-05-17T13:42:53.487Z,22.08
2018-05-17T13:45:20.983Z,22.03
2018-05-17T13:47:48.626Z,21.77
2018-05-17T13:50:16.085Z,21.69
2018-05-17T13:52:43.618Z,21.95
2018-05-17T13:55:11.125Z,21.73
2018-05-17T13:57:39.230Z,21.83
2018-05-17T14:00:06.756Z,21.81
2018-05-17T14:02:34.435Z,21.83
2018-05-17T14:05:01.805Z,21.99
2018-05-17T14:07:29.296Z,21.60
2018-05-17T14:09:56.797Z,21.70
2018-05-17T14:12:24.324Z,21.59
2018-05-17T14:14:51.813Z,21.61
2018-05-17T14:17:19.329Z,21.64
2018-05-17T14:19:46.822Z,21.66
2018-05-17T14:22:14.321Z,21.59
2018-05-17T14:24:41.843Z,21.57
2018-05-17T14:27:09.350Z,21.59
2018-05-17T14:29:36.877Z,21.26
2018-05-17T14:32:04.389Z,21.04
2018-05-17T14:34:31.880Z,21.05
2018-05-17T14:36:59.413Z,21.17
2018-05-17T14:39:26.912Z,21.26
2018-05-17T14:41:54.433Z,21.13
2018-05-17T14:44:21.925Z,20.98
2018-05-17T14:46:49.435Z,20.72
2018-05-17T14:49:16.953Z,20.61
2018-05-17T14:51:44.453Z,20.61
2018-05-17T14:54:11.973Z,20.28
2018-05-17T14:56:39.467Z,20.24
2018-05-17T18:58:01.214Z,16.21
2018-05-17T19:00:28.746Z,16.14
2018-05-17T19:02:56.246Z,16.09
2018-05-17T19:05:23.743Z,16.01
2018-05-17T19:07:51.257Z,15.98
2018-05-17T19:10:19.008Z,15.97
2018-05-17T19:12:46.658Z,15.93
2018-05-17T19:15:14.162Z,15.91
2018-05-17T19:17:41.655Z,15.85
2018-05-17T19:20:09.177Z,15.77
2018-05-17T19:22:36.682Z,15.68
2018-05-17T19:25:04.212Z,15.59
2018-05-17T19:27:31.748Z,15.53
2018-05-17T19:29:59.257Z,15.46
2018-05-17T19:32:26.888Z,15.40
2018-05-17T19:34:54.516Z,15.34
2018-05-17T19:37:22.060Z,15.28
2018-05-17T19:39:49.576Z,15.23
2018-05-17T19:42:17.075Z,15.15
2018-05-17T19:44:44.603Z,15.11
2018-05-17T19:47:12.173Z,15.07
2018-05-17T19:49:39.751Z,15.04
2018-05-17T19:52:07.240Z,14.99
2018-05-17T19:54:34.750Z,14.94
2018-05-17T19:57:02.266Z,14.88
2018-05-17T19:59:29.785Z,14.81
2018-05-17T20:01:57.319Z,14.75
2018-05-17T20:04:24.833Z,14.69
2018-05-17T20:06:52.342Z,14.61
2018-05-17T20:09:19.868Z,14.53
2018-05-17T20:11:47.379Z,14.47
2018-05-17T20:14:14.908Z,14.41
2018-05-17T20:16:42.453Z,14.33
2018-05-17T20:19:10.002Z,14.26
2018-05-17T20:21:37.513Z,14.08
2018-05-17T20:24:05.046Z,14.15
2018-05-17T20:26:32.559Z,14.01
2018-05-17T20:29:00.061Z,14.04
2018-05-17T20:31:27.580Z,13.98
2018-05-17T20:33:55.142Z,13.93
2018-05-17T20:36:22.702Z,13.88
2018-05-17T20:38:50.478Z,13.81
2018-05-17T20:41:18.039Z,13.77
2018-05-17T20:43:45.591Z,13.73
2018-05-17T20:46:13.145Z,13.67
2018-05-17T20:48:40.688Z,13.62
2018-05-17T20:51:08.267Z,13.57
2018-05-17T20:53:35.809Z,13.52
2018-05-17T20:56:03.377Z,13.48
2018-05-17T20:58:33.497Z,13.46
2018-05-17T21:01:01.073Z,13.43
2018-05-17T21:03:28.598Z,13.41
2018-05-17T21:05:56.162Z,13.38
2018-05-17T21:08:24.141Z,13.34
2018-05-17T21:10:51.701Z,13.29
2018-05-17T21:13:19.227Z,13.26
2018-05-17T21:15:46.785Z,13.23
2018-05-17T21:18:14.308Z,13.21
2018-05-17T21:20:41.832Z,13.19
2018-05-17T21:23:09.388Z,13.18
2018-05-17T21:25:36.934Z,13.13
2018-05-17T21:28:04.557Z,13.11
2018-05-17T21:30:32.078Z,13.07
2018-05-17T21:32:59.671Z,13.02
2018-05-17T21:35:27.264Z,12.97
2018-05-17T21:37:54.797Z,12.91
2018-05-17T21:40:22.407Z,12.87
2018-05-17T21:42:49.937Z,12.78
2018-05-17T21:45:17.673Z,12.80
2018-05-17T21:47:45.269Z,12.76
2018-05-17T21:50:12.814Z,12.72
2018-05-17T21:52:40.383Z,12.68
2018-05-17T21:55:07.932Z,12.65
2018-05-17T21:57:35.484Z,12.61
2018-05-17T22:00:03.029Z,12.61
2018-05-17T22:02:30.637Z,12.59
2018-05-17T22:04:58.226Z,12.58
2018-05-17T22:07:25.798Z,12.55
2018-05-17T22:09:53.347Z,12.53
2018-05-17T22:12:20.927Z,12.50
2018-05-17T22:14:48.462Z,12.45
2018-05-17T22:17:16.007Z,12.42
2018-05-17T22:19:43.579Z,12.39
2018-05-17T22:22:12.185Z,12.37
2018-05-17T22:24:39.763Z,12.33
2018-05-17T22:27:07.351Z,12.30
2018-05-17T22:29:34.946Z,12.28
2018-05-17T22:32:02.493Z,12.25
2018-05-17T22:34:30.082Z,12.22
2018-05-17T22:36:57.650Z,12.11
2018-05-17T22:39:25.207Z,12.16
2018-05-17T22:41:52.818Z,12.14
2018-05-17T22:44:20.377Z,12.10
2018-05-17T22:46:47.918Z,12.07
2018-05-17T22:49:16.533Z,12.04
2018-05-17T22:51:44.116Z,12.02
2018-05-17T22:54:13.382Z,12.00
2018-05-17T22:56:52.789Z,11.97
2018-05-17T22:59:20.364Z,11.93
2018-05-17T23:01:47.913Z,11.90
2018-05-17T23:04:15.447Z,11.88
2018-05-17T23:06:43.049Z,11.87
2018-05-17T23:09:10.595Z,11.85
2018-05-17T23:11:38.112Z,11.80
2018-05-17T23:14:06.127Z,11.80
2018-05-17T23:16:33.666Z,11.76
2018-05-17T23:19:01.203Z,11.74
2018-05-17T23:21:28.759Z,11.71
2018-05-17T23:23:56.347Z,11.70
2018-05-17T23:26:24.557Z,11.67
2018-05-17T23:28:52.724Z,11.66
2018-05-17T23:31:20.289Z,11.62
2018-05-17T23:33:47.841Z,11.59
2018-05-17T23:36:15.418Z,11.55
2018-05-17T23:38:42.965Z,11.53
2018-05-17T23:41:22.221Z,11.45
2018-05-17T23:43:49.770Z,11.25
2018-05-17T23:46:17.313Z,11.43
2018-05-17T23:48:44.857Z,11.41
2018-05-17T23:51:12.389Z,11.40
2018-05-17T23:53:39.939Z,11.37
2018-05-17T23:56:07.479Z,11.37
2018-05-17T23:58:35.035Z,11.35
